Weather at Robert Atty Bessing

Public forecast

Using degrees Celsius for public forecast. Weather courtesy of forecast.io.

Closest aviation weather report (METAR) to Robert Atty Bessing

Closest report is Tawau Airport, 100.3 nm (185.7 km) ENE.

2024/05/20 17:00 (retrieved 1 hour ago)

WBKW 201700Z 00000KT 9999 FEW016 26/25 Q1008

Closest aviation forecast (TAF) to Robert Atty Bessing

Closest forecast is Tawau Airport, 100.3 nm (185.7 km) ENE.

2024/05/20 18:00 (retrieved 7 minutes ago)

TAF WBKW 201700Z 2018/2118 VRB03KT 9999 FEW016 BECMG 2102/2104 15008KT PROB30 TEMPO 2104/2107 5000 RA FEW015 FEW016CB